Ansonville, NC

11:53 AM EDT on September 30, 2014 (GMT -0400)
Anson County | Change Station
CLOSE
Current Station
Airport
Location: Wadesboro,
Elevation: 299 ft
Nearby Weather Stations

Elev 299 ft 35.02 °N, 80.08 °W | Updated 18 minutes ago

Scattered Clouds
Scattered Clouds
71 °F
Feels Like 71 °F
N
0
Wind Variable Wind from North

Today
High -- | Low -- °F
--% Chance of Precip.
Yesterday
High -- | Low -- °F
Precip. -- in
7:14 AM 7:05 PM
Waxing Crescent, 37% visible
Pressure 29.93 in
Visibility 10.0 miles
Clouds Scattered Clouds 900 ft
Dew Point 65 °F
Humidity 81%
Rainfall 0.00 in
Snow Depth Not available.
UV 5 out of 12
Pollen 4.60 out of 12
Air Quality Not available.
Flu Activity Not available.
METAR KAFP 301535Z AUTO 00000KT 10SM SCT009 22/18 A2993 RMK AO2 T02150181

More Conditions Fewer Conditions

Pressure 29.93 in
Visibility 10.0 miles
Clouds Scattered Clouds 900 ft
Dew Point 65 °F
Humidity 81%
Rainfall 0.00 in
Snow Depth Not available.
UV 5 out of 12
Pollen 4.60 out of 12
Air Quality Not available.
Flu Activity Not available.
METAR KAFP 301535Z AUTO 00000KT 10SM SCT009 22/18 A2993 RMK AO2 T02150181

More Conditions Fewer Conditions

10-Day Weather Forecast

Almanac

Astronomy

Sep. 30, 2014 Rise Set
Actual Time 7:14 AM EDT 7:05 PM EDT
Civil Twilight 6:49 AM EDT 7:30 PM EDT
Nautical Twilight 6:19 AM EDT 8:00 PM EDT
Astronomical Twilight 5:50 AM EDT 8:29 PM EDT
Moon 1:10 PM EDT 11:44 PM EDT
Length of Visible Light 12h 41m
Length of Day
11h 51m
Tomorrow will be 2m 10s shorter.
Waxing Crescent, 37% of the Moon is Illuminated
Today
Waxing Crescent
Oct 1
First Quarter
Oct 8
Full
Oct 15
Last Quarter
Oct 23
New

Today's Extremes

State Highs State Lows

Community

WunderPhotos

Upload Photos

1,757,671 photos uploaded!

Nearby

Snow Depth

Station Depth Elevation
No new snow has been reported.

Earthquake Activity

City Distance Mag. Time & Date
No recent earthquake activity has been reported nearby.
Minimum magnitude displayed is 2.5.

Coastal Water Temperatures

Place Temperature
No Stations Reporting

Nearby Weather Stations